createdAt,value
2023-05-15T00:01:17.927Z,4.10
2023-05-15T00:03:45.237Z,4.90
2023-05-15T00:06:12.082Z,4.40
2023-05-15T00:08:38.847Z,6.40
2023-05-15T00:11:06.145Z,5.17
2023-05-15T00:13:33.033Z,4.33
2023-05-15T00:16:00.295Z,4.50
2023-05-15T00:18:27.526Z,5.53
2023-05-15T00:20:54.689Z,5.33
2023-05-15T00:23:21.422Z,5.70
2023-05-15T00:25:48.584Z,4.70
2023-05-15T00:28:15.412Z,5.77
2023-05-15T00:30:42.489Z,4.50
2023-05-15T00:33:09.169Z,6.40
2023-05-15T00:35:40.334Z,7.70
2023-05-15T00:38:07.040Z,11.60
2023-05-15T00:40:34.340Z,7.90
2023-05-15T00:43:02.005Z,9.23
2023-05-15T00:45:29.313Z,9.30
2023-05-15T00:47:56.700Z,9.37
2023-05-15T00:50:24.347Z,12.93
2023-05-15T00:52:51.744Z,14.87
2023-05-15T00:55:18.649Z,12.93
2023-05-15T00:57:47.755Z,12.80
2023-05-15T01:00:16.861Z,11.13
2023-05-15T01:02:44.289Z,11.37
2023-05-15T01:05:11.903Z,13.17
2023-05-15T01:07:48.971Z,17.07
2023-05-15T01:10:17.916Z,15.03
2023-05-15T01:12:47.370Z,15.70
2023-05-15T01:15:14.440Z,19.03
2023-05-15T01:17:41.162Z,18.83
2023-05-15T01:20:10.582Z,18.73
2023-05-15T01:23:09.590Z,20.53
2023-05-15T01:26:19.709Z,25.07
2023-05-15T01:28:52.163Z,21.23
2023-05-15T01:31:22.336Z,21.40
2023-05-15T01:33:56.204Z,22.10
2023-05-15T01:36:32.390Z,23.10
2023-05-15T01:39:02.513Z,26.03
2023-05-15T01:41:45.422Z,22.40
2023-05-15T01:44:20.016Z,22.20
2023-05-15T01:46:51.169Z,28.63
2023-05-15T01:49:21.509Z,27.43
2023-05-15T01:51:52.956Z,26.63
2023-05-15T01:54:20.748Z,27.40
2023-05-15T01:56:47.987Z,32.53
2023-05-15T01:59:15.371Z,28.70
2023-05-15T02:01:42.751Z,31.30
2023-05-15T02:04:11.162Z,30.23
2023-05-15T02:06:38.746Z,32.80
2023-05-15T02:09:06.091Z,38.60
2023-05-15T02:11:33.269Z,40.57
2023-05-15T02:14:01.498Z,31.60
2023-05-15T02:16:28.654Z,39.90
2023-05-15T02:18:55.410Z,41.77
2023-05-15T02:21:22.128Z,50.30
2023-05-15T02:23:49.278Z,43.47
2023-05-15T02:26:34.584Z,47.03
2023-05-15T02:29:23.473Z,52.40
2023-05-15T02:31:53.028Z,55.50
2023-05-15T02:34:36.260Z,52.17
2023-05-15T02:37:08.281Z,61.83
2023-05-15T02:39:35.524Z,71.43
2023-05-15T02:42:03.059Z,76.43
2023-05-15T02:44:31.818Z,79.03
2023-05-15T02:46:59.323Z,84.00
2023-05-15T02:49:26.442Z,89.77
2023-05-15T02:51:53.189Z,87.07
2023-05-15T02:54:20.332Z,81.17
2023-05-15T02:56:47.450Z,81.93
2023-05-15T02:59:19.659Z,73.80
2023-05-15T03:01:47.130Z,76.67
2023-05-15T03:04:15.396Z,76.97
2023-05-15T03:06:42.137Z,75.60
2023-05-15T03:09:08.847Z,68.60
2023-05-15T03:11:35.536Z,71.30
2023-05-15T03:14:02.743Z,70.33
2023-05-15T03:16:29.490Z,66.47
2023-05-15T03:18:56.330Z,60.50
2023-05-15T03:21:23.478Z,52.63
2023-05-15T03:23:50.205Z,56.73
2023-05-15T03:26:16.910Z,54.00
2023-05-15T03:28:44.009Z,48.23
2023-05-15T03:31:10.853Z,51.90
2023-05-15T03:33:38.300Z,48.47
2023-05-15T03:36:05.552Z,48.30
2023-05-15T03:38:32.348Z,41.53
2023-05-15T03:40:58.991Z,39.17
2023-05-15T03:43:25.658Z,41.90
2023-05-15T03:45:52.750Z,34.60
2023-05-15T03:48:19.432Z,36.30
2023-05-15T03:50:46.926Z,35.27
2023-05-15T03:53:14.036Z,38.37
2023-05-15T03:55:41.245Z,40.53
2023-05-15T03:58:08.339Z,40.43
2023-05-15T04:00:35.192Z,37.30
2023-05-15T04:03:02.494Z,42.80
2023-05-15T04:05:29.283Z,40.53
2023-05-15T04:07:56.062Z,37.10
2023-05-15T04:10:23.084Z,39.23
2023-05-15T04:12:51.803Z,40.30
2023-05-15T04:15:22.980Z,36.90
2023-05-15T04:17:51.878Z,36.60
2023-05-15T04:20:21.223Z,42.97
2023-05-15T04:22:47.985Z,34.90
2023-05-15T04:25:16.148Z,44.03
2023-05-15T04:27:43.751Z,42.03
2023-05-15T04:30:11.814Z,40.30
2023-05-15T04:32:39.932Z,42.47
2023-05-15T04:35:10.167Z,43.87
2023-05-15T04:37:38.048Z,43.43
2023-05-15T04:40:07.028Z,49.30
2023-05-15T04:42:34.633Z,46.40
2023-05-15T04:45:02.459Z,53.23
2023-05-15T04:47:29.198Z,48.97
2023-05-15T04:49:56.278Z,53.33
2023-05-15T04:52:23.362Z,49.60
2023-05-15T04:54:51.420Z,55.60
2023-05-15T04:57:18.904Z,48.73
2023-05-15T04:59:45.570Z,56.33
2023-05-15T05:02:12.836Z,56.97
2023-05-15T05:04:42.916Z,55.93
2023-05-15T05:07:10.041Z,56.77
2023-05-15T05:09:38.082Z,56.37
2023-05-15T05:12:05.030Z,59.53
2023-05-15T05:14:32.095Z,57.30
2023-05-15T05:16:59.204Z,61.10
2023-05-15T05:19:28.090Z,64.03
2023-05-15T05:21:55.574Z,59.80
2023-05-15T05:24:22.658Z,61.53
2023-05-15T05:26:49.294Z,59.20
2023-05-15T05:29:16.311Z,62.77
2023-05-15T05:31:43.485Z,59.57
2023-05-15T05:34:10.675Z,52.87
2023-05-15T05:36:37.391Z,59.23
2023-05-15T05:39:04.794Z,57.80
2023-05-15T05:41:31.583Z,52.07
2023-05-15T05:43:58.299Z,53.07
2023-05-15T05:46:26.221Z,46.43
2023-05-15T05:48:53.028Z,46.47
2023-05-15T05:51:20.200Z,46.60
2023-05-15T05:53:47.349Z,46.73
2023-05-15T05:56:14.185Z,42.87
2023-05-15T05:58:41.302Z,41.30
2023-05-15T06:01:08.978Z,38.73
2023-05-15T06:03:36.570Z,42.93
2023-05-15T06:06:03.477Z,41.30
2023-05-15T06:08:30.848Z,37.20
2023-05-15T06:10:57.991Z,39.13
2023-05-15T06:13:25.093Z,36.33
2023-05-15T06:15:52.328Z,37.10
2023-05-15T06:18:19.005Z,39.37
2023-05-15T06:20:46.823Z,38.77
2023-05-15T06:23:13.592Z,35.43
2023-05-15T06:25:40.948Z,36.13
2023-05-15T06:28:07.869Z,35.30
2023-05-15T06:30:34.627Z,36.83
2023-05-15T06:33:01.862Z,36.83
2023-05-15T06:35:28.948Z,36.77
2023-05-15T06:37:56.596Z,35.17
2023-05-15T06:40:25.253Z,39.20
2023-05-15T06:42:52.484Z,37.77
2023-05-15T06:45:19.155Z,38.80
2023-05-15T06:47:46.365Z,37.40
2023-05-15T06:50:13.501Z,35.40
2023-05-15T06:52:40.612Z,34.83
2023-05-15T06:55:07.932Z,33.07
2023-05-15T06:57:34.922Z,36.33
2023-05-15T07:00:01.586Z,37.60
2023-05-15T07:02:28.690Z,38.13
2023-05-15T07:04:56.200Z,35.60
2023-05-15T07:07:22.930Z,36.47
2023-05-15T07:09:50.303Z,35.13
2023-05-15T07:12:16.962Z,39.50
2023-05-15T07:14:43.632Z,46.07
2023-05-15T07:17:11.131Z,40.77
2023-05-15T07:19:38.378Z,40.97
2023-05-15T07:22:05.709Z,38.87
2023-05-15T07:24:32.824Z,40.10
2023-05-15T07:26:59.961Z,37.20
2023-05-15T07:29:26.910Z,39.23
2023-05-15T07:31:54.119Z,40.00
2023-05-15T07:34:21.374Z,45.90
2023-05-15T07:36:48.508Z,43.40
2023-05-15T07:39:15.981Z,44.30
2023-05-15T07:41:42.912Z,41.40
2023-05-15T07:44:09.657Z,45.20
2023-05-15T07:46:36.961Z,42.13
2023-05-15T07:49:04.074Z,45.77
2023-05-15T07:51:31.154Z,39.33
2023-05-15T07:53:58.229Z,42.63
2023-05-15T07:56:25.769Z,40.43
2023-05-15T07:58:54.140Z,40.37
2023-05-15T08:01:21.264Z,40.67
2023-05-15T08:03:48.460Z,43.93
2023-05-15T08:06:16.206Z,39.90
2023-05-15T08:08:43.983Z,37.20
2023-05-15T08:11:10.681Z,50.23
2023-05-15T08:13:37.811Z,46.13
2023-05-15T08:16:04.931Z,42.50
2023-05-15T08:18:31.785Z,43.47
2023-05-15T08:20:58.554Z,37.23
2023-05-15T08:23:25.251Z,40.77
2023-05-15T08:25:52.342Z,38.83
2023-05-15T08:28:19.389Z,42.23
2023-05-15T08:30:46.506Z,37.60
2023-05-15T08:33:13.297Z,35.67
2023-05-15T08:35:40.644Z,42.20
2023-05-15T08:38:07.348Z,38.10
2023-05-15T08:40:40.745Z,44.03
2023-05-15T08:43:15.578Z,41.60
2023-05-15T08:45:42.673Z,37.07
2023-05-15T08:48:13.877Z,38.33
2023-05-15T08:50:41.473Z,38.20
2023-05-15T08:53:08.722Z,33.57
2023-05-15T08:55:35.617Z,39.27
2023-05-15T08:58:02.597Z,35.70
2023-05-15T09:00:29.722Z,39.87
2023-05-15T09:02:59.866Z,34.17
2023-05-15T09:05:27.634Z,38.33
2023-05-15T09:07:55.552Z,34.07
2023-05-15T09:10:23.656Z,30.47
2023-05-15T09:12:53.384Z,31.67
2023-05-15T09:15:23.127Z,32.63
2023-05-15T09:17:50.870Z,30.57
2023-05-15T09:20:29.388Z,31.40
2023-05-15T09:22:57.093Z,32.17
2023-05-15T09:25:37.501Z,32.47
2023-05-15T09:28:05.697Z,36.63
2023-05-15T09:30:34.693Z,37.03
2023-05-15T09:33:03.815Z,35.20
2023-05-15T09:35:36.118Z,29.77
2023-05-15T09:38:09.303Z,29.60
2023-05-15T09:40:36.532Z,28.60
2023-05-15T09:43:03.253Z,29.90
2023-05-15T09:45:31.474Z,29.23
2023-05-15T09:48:05.707Z,29.63
2023-05-15T09:50:37.788Z,33.80
2023-05-15T09:53:05.473Z,27.90
2023-05-15T09:55:33.926Z,30.63
2023-05-15T09:58:11.964Z,28.60
2023-05-15T10:00:48.112Z,34.23
2023-05-15T10:03:18.398Z,27.60
2023-05-15T10:05:45.626Z,28.03
2023-05-15T10:08:14.851Z,30.73
2023-05-15T10:10:42.216Z,28.40
2023-05-15T10:13:09.988Z,27.60
2023-05-15T10:15:37.971Z,25.43
2023-05-15T10:18:05.382Z,24.03
2023-05-15T10:20:35.520Z,35.60
2023-05-15T10:23:05.058Z,25.77
2023-05-15T10:25:31.710Z,22.43
2023-05-15T10:27:58.993Z,23.27
2023-05-15T10:30:27.076Z,20.60
2023-05-15T10:32:55.705Z,22.90
2023-05-15T10:35:22.975Z,20.10
2023-05-15T10:37:50.280Z,27.53
2023-05-15T10:40:17.683Z,25.13
2023-05-15T10:42:46.511Z,25.17
2023-05-15T10:45:13.930Z,24.33
2023-05-15T10:47:42.819Z,22.43
2023-05-15T10:50:11.919Z,17.87
2023-05-15T10:52:39.431Z,20.47
2023-05-15T10:55:08.137Z,19.70
2023-05-15T10:57:36.271Z,18.83
2023-05-15T11:00:05.602Z,18.75
2023-05-15T11:02:38.944Z,19.08
2023-05-15T11:05:06.400Z,18.75
2023-05-15T11:07:33.263Z,19.13
2023-05-15T11:10:00.020Z,16.73
2023-05-15T11:12:47.994Z,15.50
2023-05-15T11:15:15.044Z,20.45
2023-05-15T11:18:03.512Z,17.83
2023-05-15T11:20:53.450Z,16.87
2023-05-15T11:23:23.419Z,21.52
2023-05-15T11:25:57.380Z,14.85
2023-05-15T11:28:25.998Z,16.60
2023-05-15T11:30:54.540Z,16.27
2023-05-15T11:33:21.873Z,16.88
2023-05-15T11:35:48.663Z,15.98
2023-05-15T11:38:24.522Z,13.47
2023-05-15T11:40:56.459Z,16.02
2023-05-15T11:43:35.933Z,17.17
2023-05-15T11:46:11.119Z,17.33
2023-05-15T11:48:41.294Z,18.73
2023-05-15T11:51:22.534Z,16.50
2023-05-15T11:53:54.140Z,16.83
2023-05-15T11:56:28.035Z,16.77
2023-05-15T11:58:57.030Z,14.60
2023-05-15T12:01:24.197Z,14.33
2023-05-15T12:03:52.290Z,16.80
2023-05-15T12:06:19.271Z,18.63
2023-05-15T12:08:52.427Z,16.90
2023-05-15T12:11:23.282Z,14.50
2023-05-15T12:13:54.814Z,13.32
2023-05-15T12:16:28.741Z,13.55
2023-05-15T12:18:59.699Z,14.05
2023-05-15T12:21:27.326Z,14.15
2023-05-15T12:24:07.224Z,13.20
2023-05-15T12:26:35.937Z,12.77
2023-05-15T12:29:03.599Z,13.25
2023-05-15T12:31:30.650Z,11.40
2023-05-15T12:33:57.707Z,13.40
2023-05-15T12:36:24.867Z,11.32
2023-05-15T12:38:51.690Z,14.70
2023-05-15T12:41:20.346Z,10.70
2023-05-15T12:43:48.107Z,11.70
2023-05-15T12:46:15.489Z,10.95
2023-05-15T12:48:42.420Z,14.82
2023-05-15T12:51:10.940Z,11.43
2023-05-15T12:53:39.917Z,13.45
2023-05-15T12:56:07.582Z,12.70
2023-05-15T12:58:34.976Z,12.40
2023-05-15T13:01:04.499Z,11.38
2023-05-15T13:03:32.417Z,14.05
2023-05-15T13:05:59.728Z,11.30
2023-05-15T13:08:26.527Z,12.77
2023-05-15T13:10:58.034Z,10.77
2023-05-15T13:13:25.183Z,12.63
2023-05-15T13:15:52.414Z,12.15
2023-05-15T13:18:19.571Z,10.20
2023-05-15T13:20:46.618Z,11.20
2023-05-15T13:23:16.133Z,9.07
2023-05-15T13:25:43.381Z,10.32
2023-05-15T13:28:11.680Z,7.47
2023-05-15T13:30:41.452Z,7.43
2023-05-15T13:33:09.554Z,9.43
2023-05-15T13:35:37.689Z,9.30
2023-05-15T13:38:04.605Z,9.45
2023-05-15T13:40:33.361Z,11.27
2023-05-15T13:43:00.165Z,8.85
2023-05-15T13:45:27.268Z,9.48
2023-05-15T13:47:55.433Z,12.30
2023-05-15T13:50:22.265Z,12.10
2023-05-15T13:52:48.976Z,9.75
2023-05-15T13:55:15.779Z,10.55
2023-05-15T13:57:43.611Z,10.30
2023-05-15T14:00:13.326Z,12.98
2023-05-15T14:02:49.062Z,10.82
2023-05-15T14:05:16.939Z,10.32
2023-05-15T14:07:43.825Z,9.68
2023-05-15T14:10:11.345Z,6.97
2023-05-15T14:12:38.666Z,10.30
2023-05-15T14:15:05.935Z,8.75
2023-05-15T14:17:33.074Z,8.15
2023-05-15T14:20:00.249Z,9.10
2023-05-15T14:22:27.393Z,6.68
2023-05-15T14:24:54.146Z,7.57
2023-05-15T14:27:21.256Z,8.77
2023-05-15T14:29:49.181Z,10.48
2023-05-15T14:32:16.887Z,13.48
2023-05-15T14:34:44.007Z,16.50
2023-05-15T14:37:11.134Z,16.95
2023-05-15T14:39:38.275Z,19.90
2023-05-15T14:42:06.174Z,16.92
2023-05-15T14:44:33.904Z,18.08
2023-05-15T14:47:12.645Z,17.80
2023-05-15T14:49:39.997Z,21.38
2023-05-15T14:52:09.463Z,22.25
2023-05-15T14:54:36.921Z,18.30
2023-05-15T14:57:03.959Z,16.92
2023-05-15T14:59:30.896Z,18.27
2023-05-15T15:01:57.692Z,18.00
2023-05-15T15:04:26.608Z,20.07
2023-05-15T15:06:56.742Z,17.63
2023-05-15T15:09:24.180Z,15.17
2023-05-15T15:11:51.326Z,18.23
2023-05-15T15:14:18.255Z,17.90
2023-05-15T15:16:48.875Z,16.02
2023-05-15T15:19:18.999Z,14.45
2023-05-15T15:21:47.214Z,14.50
2023-05-15T15:24:14.438Z,10.82
2023-05-15T15:26:41.368Z,15.80
2023-05-15T15:29:08.039Z,10.80
2023-05-15T15:31:34.779Z,12.07
2023-05-15T15:34:04.584Z,11.77
2023-05-15T15:36:32.520Z,11.38
2023-05-15T15:38:59.259Z,11.60
2023-05-15T15:41:25.955Z,13.68
2023-05-15T15:43:53.777Z,11.63
2023-05-15T15:46:20.748Z,17.73
2023-05-15T15:48:48.217Z,13.15
2023-05-15T15:51:14.915Z,15.20
2023-05-15T15:53:41.630Z,15.98
2023-05-15T15:56:08.802Z,19.40
2023-05-15T15:58:35.587Z,17.83
2023-05-15T16:01:03.196Z,16.48
2023-05-15T16:03:31.544Z,18.27
2023-05-15T16:06:00.038Z,19.20
2023-05-15T16:08:27.667Z,16.73
2023-05-15T16:10:54.982Z,15.93
2023-05-15T16:13:22.208Z,13.70
2023-05-15T16:15:49.285Z,17.40
2023-05-15T16:18:16.654Z,14.73
2023-05-15T16:20:43.888Z,14.45
2023-05-15T16:23:14.193Z,17.07
2023-05-15T16:25:41.338Z,15.40
2023-05-15T16:28:09.911Z,20.73
2023-05-15T16:30:48.278Z,22.80
2023-05-15T16:33:19.453Z,14.50
2023-05-15T16:35:47.330Z,17.23
2023-05-15T16:38:15.614Z,16.23
2023-05-15T16:40:42.898Z,17.93
2023-05-15T16:43:09.701Z,17.53
2023-05-15T16:45:36.939Z,20.90
2023-05-15T16:48:04.171Z,17.77
2023-05-15T16:50:32.214Z,18.17
2023-05-15T16:52:59.643Z,18.77
2023-05-15T16:55:26.706Z,21.90
2023-05-15T16:57:54.011Z,22.42
2023-05-15T17:00:21.003Z,23.93
2023-05-15T17:02:48.233Z,21.13
2023-05-15T17:05:15.672Z,20.50
2023-05-15T17:07:43.673Z,19.97
2023-05-15T17:10:12.213Z,22.73
2023-05-15T17:12:39.478Z,25.60
2023-05-15T17:15:06.895Z,21.53
2023-05-15T17:17:34.610Z,23.23
2023-05-15T17:20:02.966Z,20.20
2023-05-15T17:22:30.495Z,22.43
2023-05-15T17:24:57.521Z,22.30
2023-05-15T17:27:24.695Z,21.17
2023-05-15T17:29:51.944Z,22.67
2023-05-15T17:32:19.657Z,26.83
2023-05-15T17:34:47.351Z,24.57
2023-05-15T17:37:14.735Z,26.80
2023-05-15T17:39:42.051Z,24.17
2023-05-15T17:42:09.182Z,25.80
2023-05-15T17:44:36.319Z,24.33
2023-05-15T17:47:03.516Z,22.57
2023-05-15T17:49:30.486Z,21.73
2023-05-15T17:51:57.631Z,23.77
2023-05-15T17:54:24.766Z,21.70
2023-05-15T17:56:51.878Z,22.80
2023-05-15T17:59:18.658Z,23.30
2023-05-15T18:01:45.442Z,22.13
2023-05-15T18:04:12.287Z,20.63
2023-05-15T18:06:39.184Z,21.20
2023-05-15T18:09:06.358Z,22.97
2023-05-15T18:11:33.461Z,27.53
2023-05-15T18:14:00.592Z,26.03
2023-05-15T18:16:27.852Z,29.87
2023-05-15T18:18:55.067Z,29.43
2023-05-15T18:21:21.867Z,28.80
2023-05-15T18:23:49.159Z,30.43
2023-05-15T18:26:15.905Z,28.70
2023-05-15T18:28:43.030Z,30.43
2023-05-15T18:31:10.088Z,29.93
2023-05-15T18:33:37.235Z,28.73
2023-05-15T18:36:06.702Z,25.57
2023-05-15T18:38:34.534Z,26.40
2023-05-15T18:41:01.621Z,22.40
2023-05-15T18:43:28.491Z,22.57
2023-05-15T18:45:55.636Z,21.80
2023-05-15T18:48:22.362Z,19.33
2023-05-15T18:50:49.514Z,16.33
2023-05-15T18:53:16.476Z,19.37
2023-05-15T18:55:43.583Z,17.67
2023-05-15T18:58:10.347Z,18.20
2023-05-15T19:00:39.053Z,16.57
2023-05-15T19:03:09.957Z,15.57
2023-05-15T19:05:36.796Z,17.40
2023-05-15T19:08:04.306Z,15.17
2023-05-15T19:10:31.128Z,12.87
2023-05-15T19:12:58.308Z,15.57
2023-05-15T19:15:25.729Z,11.17
2023-05-15T19:17:52.628Z,14.53
2023-05-15T19:20:20.067Z,14.30
2023-05-15T19:22:47.264Z,12.20
2023-05-15T19:25:14.107Z,12.50
2023-05-15T19:27:41.245Z,11.80
2023-05-15T19:30:09.378Z,11.47
2023-05-15T19:32:37.216Z,12.40
2023-05-15T19:35:04.625Z,10.53
2023-05-15T19:37:31.750Z,15.03
2023-05-15T19:39:58.563Z,11.67
2023-05-15T19:42:26.222Z,16.33
2023-05-15T19:44:53.356Z,11.03
2023-05-15T19:47:20.696Z,11.17
2023-05-15T19:49:47.521Z,12.63
2023-05-15T19:52:14.687Z,11.27
2023-05-15T19:54:41.768Z,11.50
2023-05-15T19:57:08.841Z,8.77
2023-05-15T19:59:35.974Z,14.37
2023-05-15T20:02:03.447Z,11.50
2023-05-15T20:04:32.476Z,8.13
2023-05-15T20:06:59.240Z,8.80
2023-05-15T20:09:25.893Z,8.93
2023-05-15T20:11:53.247Z,11.07
2023-05-15T20:14:19.948Z,10.27
2023-05-15T20:16:46.674Z,7.63
2023-05-15T20:19:13.961Z,7.13
2023-05-15T20:21:40.929Z,7.50
2023-05-15T20:24:08.041Z,8.10
2023-05-15T20:26:37.662Z,7.40
2023-05-15T20:29:04.416Z,7.27
2023-05-15T20:31:31.127Z,8.87
2023-05-15T20:33:59.113Z,8.47
2023-05-15T20:36:26.966Z,7.87
2023-05-15T20:38:54.967Z,10.77
2023-05-15T20:41:23.036Z,6.73
2023-05-15T20:43:50.487Z,8.77
2023-05-15T20:46:17.359Z,7.73
2023-05-15T20:48:44.368Z,6.53
2023-05-15T20:51:11.116Z,6.30
2023-05-15T20:53:37.854Z,6.57
2023-05-15T20:56:05.002Z,6.90
2023-05-15T20:58:32.119Z,5.67
2023-05-15T21:01:01.038Z,8.83
2023-05-15T21:03:29.054Z,5.97
2023-05-15T21:05:57.316Z,9.03
2023-05-15T21:08:24.462Z,6.93
2023-05-15T21:10:53.053Z,7.17
2023-05-15T21:13:19.830Z,6.97
2023-05-15T21:15:48.024Z,7.43
2023-05-15T21:18:14.736Z,11.90
2023-05-15T21:20:41.878Z,8.87
2023-05-15T21:23:08.762Z,7.67
2023-05-15T21:25:35.765Z,8.87
2023-05-15T21:28:03.495Z,6.63
2023-05-15T21:30:30.808Z,5.93
2023-05-15T21:32:57.687Z,8.80
2023-05-15T21:35:25.470Z,8.40
2023-05-15T21:37:52.595Z,7.90
2023-05-15T21:40:19.270Z,7.60
2023-05-15T21:42:46.430Z,8.13
2023-05-15T21:45:13.534Z,8.80
2023-05-15T21:47:40.668Z,8.13
2023-05-15T21:50:07.964Z,9.57
2023-05-15T21:52:34.698Z,13.40
2023-05-15T21:55:01.847Z,7.50
2023-05-15T21:57:28.927Z,10.27
2023-05-15T21:59:56.099Z,9.53
2023-05-15T22:02:23.619Z,7.47
2023-05-15T22:04:50.935Z,8.70
2023-05-15T22:07:18.051Z,11.40
2023-05-15T22:09:45.129Z,11.33
2023-05-15T22:12:12.283Z,7.70
2023-05-15T22:14:47.009Z,10.07
2023-05-15T22:17:26.317Z,9.23
2023-05-15T22:19:53.560Z,10.03
2023-05-15T22:22:20.857Z,12.67
2023-05-15T22:24:48.027Z,9.73
2023-05-15T22:27:16.831Z,11.27
2023-05-15T22:29:43.895Z,8.53
2023-05-15T22:32:10.986Z,9.73
2023-05-15T22:34:38.170Z,12.90
2023-05-15T22:37:05.370Z,9.17
2023-05-15T22:39:32.777Z,12.20
2023-05-15T22:41:59.471Z,10.83
2023-05-15T22:44:26.199Z,11.17
2023-05-15T22:46:53.047Z,14.43
2023-05-15T22:49:25.362Z,11.80
2023-05-15T22:51:53.476Z,11.17
2023-05-15T22:54:21.751Z,12.63
2023-05-15T22:56:50.053Z,13.97
2023-05-15T22:59:17.240Z,9.47
2023-05-15T23:01:44.899Z,10.73
2023-05-15T23:04:11.874Z,12.87
2023-05-15T23:06:40.193Z,11.43
2023-05-15T23:09:10.488Z,12.53
2023-05-15T23:11:37.849Z,11.93
2023-05-15T23:14:04.997Z,13.10
2023-05-15T23:16:31.740Z,12.80
2023-05-15T23:18:58.937Z,11.23
2023-05-15T23:21:25.824Z,7.97
2023-05-15T23:23:52.982Z,9.67
2023-05-15T23:26:19.799Z,7.33
2023-05-15T23:28:46.639Z,8.00
2023-05-15T23:31:14.121Z,7.50
2023-05-15T23:33:41.463Z,7.20
2023-05-15T23:36:08.728Z,9.40
2023-05-15T23:38:35.966Z,9.67
2023-05-15T23:41:02.852Z,13.53
2023-05-15T23:43:29.922Z,6.63
2023-05-15T23:45:56.600Z,11.60
2023-05-15T23:48:25.469Z,8.77
2023-05-15T23:50:53.011Z,9.03
2023-05-15T23:53:20.191Z,7.40
2023-05-15T23:55:47.287Z,6.53
2023-05-15T23:58:14.001Z,7.53
